Hurlburt Field, FL

9:35 PM CDT on September 04, 2015 (GMT -0500)
Hurlburt | | Change Station
CLOSE
Current Station
Airport
Location: Hurlburt Field,
Elevation: 39 ft
Nearby Weather Stations

Elev 39 ft 30.43 °N, 86.69 °W | Updated 37 minutes ago

Clear
Clear
82 °F
Feels Like 87 °F
N
4
Wind Variable Wind from NNW

Today
High -- | Low -- °F
--% Chance of Precip.
Yesterday
High -- | Low -- °F
Precip. -- in
6:24 AM 7:06 PM
Waning Gibbous, 53% visible
Pressure 29.97 in
Visibility 10.0 miles
Clouds Clear
Heat Index 87 °F
Dew Point 74 °F
Humidity 77%
Rainfall 0.00 in
Snow Depth Not available.
UV 0 out of 12
Pollen 7.90 out of 12
Air Quality Not available.
Flu Activity Not available.
METAR KHRT 050158Z AUTO 33003KT 10SM CLR 28/23 A2996 RMK AO2 SLP147 T02760233 $
Pressure 29.97 in
Visibility 10.0 miles
Clouds Clear
Heat Index 87 °F
Dew Point 74 °F
Humidity 77%
Rainfall 0.00 in
Snow Depth Not available.
UV 0 out of 12
Pollen 7.90 out of 12
Air Quality Not available.
Flu Activity Not available.
METAR KHRT 050158Z AUTO 33003KT 10SM CLR 28/23 A2996 RMK AO2 SLP147 T02760233 $

10-Day Weather Forecast

×

Almanac

Astronomy

Sep. 04, 2015 Rise Set
Actual Time
Civil Twilight
Nautical Twilight
Astronomical Twilight
Moon
Length of Visible Light
Length of Day
Tomorrow will be .
, % of the Moon is Illuminated

Today's Extremes

State Highs State Lows

Community

WunderPhotos

Upload Photos

1,852,393 photos uploaded!

WunderBlogs® & News

Nearby

Air Quality

  Air Quality AQ Index Pollutant
Not available.

Snow Depth

Station Depth Elevation

Earthquake Activity

City Distance Mag. Time & Date
Minimum magnitude displayed is 2.5.

Coastal Water Temperatures

Place Temperature

Stations

Nearby Weather Stations

Station Location Temp. Windchill Dew Point Humidity Wind Precip. Elev Updated Type